Ligovsky Prospect — A8AP5 — position and weather

sailwx.info

Track history (hours):
 
Tides and Currents Weather Stations Pressure Air Temp Water Temp Dewpoint Dewpoint Depression Visibility Wind Speed Wind Dir Waves Ship Positions

Ligovsky Prospect

Last reported at 2017-Sep-24 19:04 UTC. Time now 2017-Sep-25 09:43 UTC.
Position N 56°23' E 018°53'.

Length 250 m; draft 8.8 m.

Type: Ship. MMSI: 636011641.

Date/timePositionNaut miles runAvg speedWind from/ knotsBaromVisibWave heightAir tempDewpointWater temp
2017-Sep-24 19:04N 56°23' E 018°53'211.3
2017-Sep-24 18:51N 56°20' E 018°51'410.5
2017-Sep-24 18:29N 56°18' E 018°46'1310.9
2017-Sep-24 17:17N 56°11' E 018°26'310.8
2017-Sep-24 17:00N 56°09' E 018°21'510.9
2017-Sep-24 16:31N 56°06' E 018°13'2110.8
2017-Sep-24 14:37N 55°55' E 017°42'110.8
2017-Sep-24 14:30N 55°55' E 017°40'510.7
2017-Sep-24 14:00N 55°53' E 017°31'510.7
2017-Sep-24 13:30N 55°52' E 017°22'511.0
2017-Sep-24 13:00N 55°51' E 017°12'1111.1
2017-Sep-24 12:02N 55°48' E 016°54'010.9
2017-Sep-24 12:00N 55°48' E 016°53'510.9
2017-Sep-24 11:30N 55°47' E 016°44'510.9
2017-Sep-24 11:00N 55°46' E 016°34'511.0
2017-Sep-24 10:30N 55°44' E 016°25'611.0
2017-Sep-24 10:00N 55°43' E 016°15'510.9
2017-Sep-24 09:30N 55°42' E 016°06'510.9
2017-Sep-24 09:00N 55°40' E 015°57'611.1
2017-Sep-24 08:30N 55°39' E 015°47'611.3
2017-Sep-24 08:01N 55°38' E 015°37'611.3
2017-Sep-24 07:31N 55°36' E 015°28'713.1
2017-Sep-24 07:01N 55°33' E 015°17'714.7
2017-Sep-24 06:30N 55°30' E 015°06'714.2
2017-Sep-24 06:00N 55°27' E 014°54'611.7
2017-Sep-24 05:30N 55°25' E 014°45'511.1
2017-Sep-24 05:00N 55°22' E 014°36'611.1
2017-Sep-24 04:30N 55°18' E 014°30'511.0
2017-Sep-24 04:00N 55°14' E 014°24'611.0
2017-Sep-24 03:30N 55°09' E 014°18'611.2
2017-Sep-24 03:00N 55°05' E 014°12'4610.9
2017-Sep-23 22:47N 54°48' E 012°57'311.4
2017-Sep-23 22:30N 54°47' E 012°52'1811.2
2017-Sep-23 20:52N 54°38' E 012°24'411.1
2017-Sep-23 20:30N 54°35' E 012°19'812.1
2017-Sep-23 19:51N 54°28' E 012°13'  
2017-Sep-21 07:54N 58°31' W 002°45'512.8
2017-Sep-21 07:31N 58°35' W 002°52'917.0
2017-Sep-21 07:01N 58°41' W 003°02'816.2
2017-Sep-21 06:31N 58°43' W 003°18'712.6
2017-Sep-21 05:59N 58°43' W 003°30'613.2
2017-Sep-21 05:30N 58°43' W 003°42'713.1
2017-Sep-21 05:00N 58°43' W 003°55'613.0
2017-Sep-21 04:30N 58°43' W 004°07'612.7
2017-Sep-21 04:00N 58°43' W 004°20'612.6
2017-Sep-21 03:30N 58°43' W 004°32'612.1
2017-Sep-21 03:00N 58°43' W 004°44'184 7.3
2017-Sep-20 01:40N 55°56' W 007°05'213.1
2017-Sep-20 01:30N 55°54' W 007°03'713.6
2017-Sep-20 01:00N 55°48' W 006°56'714.0
2017-Sep-20 00:30N 55°42' W 006°50'714.0
2017-Sep-20 00:00N 55°36' W 006°43'612.4
2017-Sep-19 23:30N 55°31' W 006°37'611.5
2017-Sep-19 22:59N 55°28' W 006°28'612.6
2017-Sep-19 22:30N 55°26' W 006°18'611.4
2017-Sep-19 22:00N 55°25' W 006°08'5 9.8
2017-Sep-19 21:30N 55°23' W 006°00'5 9.1
2017-Sep-19 21:00N 55°19' W 005°56'4 8.1
2017-Sep-19 20:30N 55°16' W 005°51'4 8.3
2017-Sep-19 20:00N 55°13' W 005°47'5 9.4
2017-Sep-19 19:30N 55°09' W 005°42'5 9.5
2017-Sep-19 19:00N 55°05' W 005°37'610.0
2017-Sep-19 18:26N 55°01' W 005°31'410.2
2017-Sep-19 18:00N 54°57' W 005°27'510.7
2017-Sep-19 17:30N 54°52' W 005°24'611.3
2017-Sep-19 17:00N 54°46' W 005°21'611.8
2017-Sep-19 16:30N 54°41' W 005°17'612.1
2017-Sep-19 16:00N 54°35' W 005°13'612.0
2017-Sep-19 15:30N 54°30' W 005°09'611.8
2017-Sep-19 15:00N 54°24' W 005°06'612.2
2017-Sep-19 14:30N 54°18' W 005°08'612.3
2017-Sep-19 14:00N 54°12' W 005°10'711.7
2017-Sep-19 13:24N 54°05' W 005°11'9613.4
2017-Sep-19 06:16N 52°31' W 005°45'416.8
2017-Sep-19 06:00N 52°27' W 005°48'714.2
2017-Sep-19 05:30N 52°21' W 005°52'713.1
2017-Sep-19 05:01N 52°14' W 005°55'712.3
2017-Sep-19 04:25N 52°08' W 005°59'511.5
2017-Sep-19 04:00N 52°05' W 006°05'510.9
2017-Sep-19 03:30N 52°02' W 006°13'611.3
2017-Sep-19 03:00N 52°00' W 006°22'510.9
2017-Sep-19 02:30N 51°59' W 006°31'510.7
2017-Sep-19 02:01N 51°58' W 006°39'510.7
2017-Sep-19 01:30N 51°56' W 006°47'610.9
2017-Sep-19 00:59N 51°55' W 006°56'611.0
2017-Sep-19 00:26N 51°54' W 007°06'511.2
2017-Sep-19 00:01N 51°52' W 007°13'611.3
2017-Sep-18 23:31N 51°51' W 007°22'611.3
2017-Sep-18 23:01N 51°50' W 007°31'611.2
2017-Sep-18 22:31N 51°48' W 007°40'611.2
2017-Sep-18 22:01N 51°47' W 007°49'611.3
2017-Sep-18 21:31N 51°45' W 007°57'611.3
2017-Sep-18 21:00N 51°44' W 008°06'510.2
2017-Sep-18 20:31N 51°44' W 008°14'510.4
2017-Sep-18 20:01N 51°49' W 008°16'1 2.6
2017-Sep-18 19:28N 51°50' W 008°16'0 0.0
2017-Sep-18 18:58N 51°50' W 008°16'0 0.0
2017-Sep-18 18:28N 51°50' W 008°16'0 0.0
2017-Sep-18 17:58N 51°50' W 008°16'0 0.0
2017-Sep-18 17:28N 51°50' W 008°16'0 0.0
2017-Sep-18 16:58N 51°50' W 008°16'0 0.0
2017-Sep-18 16:28N 51°50' W 008°16'0 0.0
2017-Sep-18 15:58N 51°50' W 008°16'0 0.0
2017-Sep-18 15:28N 51°50' W 008°16'0 0.0
2017-Sep-18 14:58N 51°50' W 008°16'0 0.0
2017-Sep-18 14:28N 51°50' W 008°16'0 0.0
2017-Sep-18 13:58N 51°50' W 008°16'0 0.0
2017-Sep-18 13:28N 51°50' W 008°16'0 0.0
2017-Sep-18 12:58N 51°50' W 008°16'0 0.0
2017-Sep-18 12:28N 51°50' W 008°16'0 0.0
2017-Sep-18 11:58N 51°50' W 008°16'0 0.0
2017-Sep-18 11:28N 51°50' W 008°16'0 0.0
2017-Sep-18 10:58N 51°50' W 008°16'0 0.0
2017-Sep-18 10:28N 51°50' W 008°16'0 0.0
2017-Sep-18 09:58N 51°50' W 008°16'0 0.0
2017-Sep-18 09:28N 51°50' W 008°16'0 0.0
2017-Sep-18 08:58N 51°50' W 008°16'0 0.0
2017-Sep-18 08:28N 51°50' W 008°16'0 0.0
2017-Sep-18 07:58N 51°50' W 008°16'0 0.0
2017-Sep-18 07:28N 51°50' W 008°16'0 0.0
2017-Sep-18 06:58N 51°50' W 008°16'0 0.0
2017-Sep-18 06:28N 51°50' W 008°16'0 0.0
2017-Sep-18 05:58N 51°50' W 008°16'0 0.0
2017-Sep-18 05:28N 51°50' W 008°16'0 0.0
2017-Sep-18 04:58N 51°50' W 008°16'0 0.0
2017-Sep-18 04:28N 51°50' W 008°16'0 0.0
2017-Sep-18 03:58N 51°50' W 008°16'0 0.0
2017-Sep-18 03:28N 51°50' W 008°16'0 0.0
2017-Sep-18 02:58N 51°50' W 008°16'0 0.0
2017-Sep-18 02:28N 51°50' W 008°16'0 0.0
2017-Sep-18 01:58N 51°50' W 008°16'0 0.0
2017-Sep-18 01:28N 51°50' W 008°16'0 0.0
2017-Sep-18 00:58N 51°50' W 008°16'0 0.0
2017-Sep-18 00:28N 51°50' W 008°16'0 0.0
2017-Sep-17 23:58N 51°50' W 008°16'0 0.0
2017-Sep-17 23:28N 51°50' W 008°16'0 0.0
2017-Sep-17 22:58N 51°50' W 008°16'0 0.0
2017-Sep-17 22:28N 51°50' W 008°16'0 0.0
2017-Sep-17 21:58N 51°50' W 008°16'0 0.0
2017-Sep-17 21:28N 51°50' W 008°16'0 0.0
2017-Sep-17 20:58N 51°50' W 008°16'0 0.0
2017-Sep-17 20:28N 51°50' W 008°16'0 0.0
2017-Sep-17 19:58N 51°50' W 008°16'0 0.0
2017-Sep-17 19:28N 51°50' W 008°16'0 0.0
2017-Sep-17 18:58N 51°50' W 008°16'0 0.0
2017-Sep-17 18:28N 51°50' W 008°16'0 0.0
2017-Sep-17 17:58N 51°50' W 008°16'0 0.0
2017-Sep-17 17:28N 51°50' W 008°16'0 0.0
2017-Sep-17 16:58N 51°50' W 008°16'0 0.0
2017-Sep-17 16:28N 51°50' W 008°16'0 0.0
2017-Sep-17 15:58N 51°50' W 008°16'0 0.0
2017-Sep-17 15:28N 51°50' W 008°16'0 0.0
2017-Sep-17 14:58N 51°50' W 008°16'0 0.0
2017-Sep-17 14:28N 51°50' W 008°16'0 0.5
2017-Sep-17 14:00N 51°50' W 008°16'4 7.6
2017-Sep-17 13:30N 51°46' W 008°15'4 7.6
2017-Sep-17 13:00N 51°42' W 008°16'0 0.8
2017-Sep-17 12:29N 51°42' W 008°16'0 0.0
2017-Sep-17 11:59N 51°42' W 008°16'0 0.0
2017-Sep-17 11:29N 51°42' W 008°16'0 0.0
2017-Sep-17 10:59N 51°42' W 008°16'0 0.0
2017-Sep-17 10:29N 51°42' W 008°16'0 0.1
2017-Sep-17 09:59N 51°42' W 008°16'0 0.1
2017-Sep-17 09:29N 51°42' W 008°16'0 0.0
2017-Sep-17 08:59N 51°42' W 008°16'0 0.0
2017-Sep-17 08:29N 51°42' W 008°16'0 0.0
2017-Sep-17 07:59N 51°42' W 008°16'0 0.0
2017-Sep-17 07:29N 51°42' W 008°16'0 0.0
2017-Sep-17 06:59N 51°42' W 008°16'0 0.0
2017-Sep-17 06:29N 51°42' W 008°16'0 0.0
2017-Sep-17 05:59N 51°42' W 008°16'0 0.0
2017-Sep-17 05:29N 51°42' W 008°16'0 0.0
2017-Sep-17 04:59N 51°42' W 008°16'0 0.0
2017-Sep-17 04:29N 51°42' W 008°16'0 0.0
2017-Sep-17 03:59N 51°42' W 008°16'0 0.0
2017-Sep-17 03:29N 51°42' W 008°16'0 0.0
2017-Sep-17 02:59N 51°42' W 008°16'0 0.1
2017-Sep-17 02:29N 51°42' W 008°16'0 0.1
2017-Sep-17 01:59N 51°42' W 008°16'0 0.0
2017-Sep-17 01:29N 51°42' W 008°16'0 0.2
2017-Sep-17 00:59N 51°42' W 008°16'0 0.0
2017-Sep-17 00:29N 51°42' W 008°16'0 0.0
2017-Sep-16 23:59N 51°42' W 008°16'0 0.1
2017-Sep-16 23:29N 51°42' W 008°16'0 0.1
2017-Sep-16 22:59N 51°42' W 008°16'0 0.0
2017-Sep-16 22:29N 51°42' W 008°16'0 0.1
2017-Sep-16 21:59N 51°42' W 008°16'0 0.1
2017-Sep-16 21:29N 51°42' W 008°16'0 0.1
2017-Sep-16 20:59N 51°42' W 008°16'0 0.0
2017-Sep-16 20:29N 51°42' W 008°16'0 0.0
2017-Sep-16 19:59N 51°42' W 008°16'0 0.0
2017-Sep-16 19:29N 51°42' W 008°16'0 0.1
2017-Sep-16 18:59N 51°42' W 008°16'0 0.1
2017-Sep-16 18:29N 51°42' W 008°16'0 0.0
2017-Sep-16 17:59N 51°42' W 008°16'0 0.0
2017-Sep-16 17:29N 51°42' W 008°16'0 0.0
2017-Sep-16 16:59N 51°42' W 008°16'0 0.1
2017-Sep-16 16:29N 51°42' W 008°16'0 0.0
2017-Sep-16 15:59N 51°42' W 008°16'0 0.0
2017-Sep-16 15:29N 51°42' W 008°16'0 0.1
2017-Sep-16 14:59N 51°42' W 008°16'0 0.1
2017-Sep-16 14:29N 51°42' W 008°16'0 0.0
2017-Sep-16 13:59N 51°42' W 008°16'0 0.0
2017-Sep-16 13:29N 51°42' W 008°16'0 0.0
2017-Sep-16 12:59N 51°42' W 008°16'0 0.0
2017-Sep-16 12:29N 51°42' W 008°16'0 0.0
2017-Sep-16 11:59N 51°42' W 008°16'0 0.1
2017-Sep-16 11:29N 51°42' W 008°16'0 0.4
2017-Sep-16 11:01N 51°42' W 008°16'4 8.2
2017-Sep-16 10:31N 51°43' W 008°09'612.5
2017-Sep-16 10:00N 51°45' W 007°59'612.7
2017-Sep-16 09:31N 51°46' W 007°50'612.9
2017-Sep-16 09:00N 51°48' W 007°40'612.9
2017-Sep-16 08:30N 51°50' W 007°30'713.0
2017-Sep-16 08:00N 51°51' W 007°19'613.1
2017-Sep-16 07:31N 51°53' W 007°09'713.3
2017-Sep-16 07:00N 51°55' W 006°59'714.0
2017-Sep-16 06:30N 51°56' W 006°48'713.4
2017-Sep-16 06:00N 51°58' W 006°37'611.6
2017-Sep-16 05:30N 52°00' W 006°28'611.6
2017-Sep-16 05:00N 52°04' W 006°21'611.1
2017-Sep-16 04:30N 52°07' W 006°14'510.6
2017-Sep-16 04:00N 52°11' W 006°07'510.6
2017-Sep-16 03:30N 52°16' W 006°04'510.9
2017-Sep-16 03:00N 52°21' W 006°00'611.3
2017-Sep-16 02:30N 52°26' W 005°57'611.8
2017-Sep-16 02:00N 52°31' W 005°53'612.2
2017-Sep-16 01:30N 52°37' W 005°49'8613.2
2017-Sep-15 18:59N 54°00' W 005°14'612.6
2017-Sep-15 18:30N 54°06' W 005°12'613.0
2017-Sep-15 18:00N 54°13' W 005°10'713.2
2017-Sep-15 17:30N 54°19' W 005°08'612.9
2017-Sep-15 17:00N 54°26' W 005°07'713.4
2017-Sep-15 16:30N 54°32' W 005°12'713.7
2017-Sep-15 16:01N 54°38' W 005°18'714.4
2017-Sep-15 15:30N 54°44' W 005°23'714.0
2017-Sep-15 15:00N 54°50' W 005°29'713.6
2017-Sep-15 14:30N 54°56' W 005°34'2612.9
2017-Sep-15 12:31N 55°17' W 006°01'111.5
2017-Sep-15 12:28N 55°17' W 006°02'511.4
2017-Sep-15 12:00N 55°21' W 006°08'611.9
2017-Sep-15 11:30N 55°23' W 006°18'611.1
2017-Sep-15 11:00N 55°25' W 006°27'510.6
2017-Sep-15 10:30N 55°26' W 006°36'610.7
2017-Sep-15 09:59N 55°28' W 006°46'610.4
2017-Sep-15 09:22N 55°30' W 006°56'510.6
2017-Sep-15 08:53N 55°32' W 007°05'610.7
2017-Sep-15 08:20N 55°36' W 007°11'712.1
2017-Sep-15 07:45N 55°43' W 007°16'412.2
2017-Sep-15 07:27N 55°46' W 007°19'913.4
2017-Sep-15 06:47N 55°54' W 007°26'  
Track history (hours):
 
Tides and Currents Weather Stations Pressure Air Temp Water Temp Dewpoint Dewpoint Depression Visibility Wind Speed Wind Dir Waves Ship Positions

Ligovsky Prospect

Last reported at 2017-Sep-24 19:04 UTC. Time now 2017-Sep-25 09:43 UTC.
Position N 56°23' E 018°53'.

Length 250 m; draft 8.8 m.

Type: Ship. MMSI: 636011641.

Date/timePositionNaut miles runAvg speedWind from/ knotsBaromVisibWave heightAir tempDewpointWater temp
2017-Sep-24 19:04N 56°23' E 018°53'211.3
2017-Sep-24 18:51N 56°20' E 018°51'410.5
2017-Sep-24 18:29N 56°18' E 018°46'1310.9
2017-Sep-24 17:17N 56°11' E 018°26'310.8
2017-Sep-24 17:00N 56°09' E 018°21'510.9
2017-Sep-24 16:31N 56°06' E 018°13'2110.8
2017-Sep-24 14:37N 55°55' E 017°42'110.8
2017-Sep-24 14:30N 55°55' E 017°40'510.7
2017-Sep-24 14:00N 55°53' E 017°31'510.7
2017-Sep-24 13:30N 55°52' E 017°22'511.0
2017-Sep-24 13:00N 55°51' E 017°12'1111.1
2017-Sep-24 12:02N 55°48' E 016°54'010.9
2017-Sep-24 12:00N 55°48' E 016°53'510.9
2017-Sep-24 11:30N 55°47' E 016°44'510.9
2017-Sep-24 11:00N 55°46' E 016°34'511.0
2017-Sep-24 10:30N 55°44' E 016°25'611.0
2017-Sep-24 10:00N 55°43' E 016°15'510.9
2017-Sep-24 09:30N 55°42' E 016°06'510.9
2017-Sep-24 09:00N 55°40' E 015°57'611.1
2017-Sep-24 08:30N 55°39' E 015°47'611.3
2017-Sep-24 08:01N 55°38' E 015°37'611.3
2017-Sep-24 07:31N 55°36' E 015°28'713.1
2017-Sep-24 07:01N 55°33' E 015°17'714.7
2017-Sep-24 06:30N 55°30' E 015°06'714.2
2017-Sep-24 06:00N 55°27' E 014°54'611.7
2017-Sep-24 05:30N 55°25' E 014°45'511.1
2017-Sep-24 05:00N 55°22' E 014°36'611.1
2017-Sep-24 04:30N 55°18' E 014°30'511.0
2017-Sep-24 04:00N 55°14' E 014°24'611.0
2017-Sep-24 03:30N 55°09' E 014°18'611.2
2017-Sep-24 03:00N 55°05' E 014°12'4610.9
2017-Sep-23 22:47N 54°48' E 012°57'311.4
2017-Sep-23 22:30N 54°47' E 012°52'1811.2
2017-Sep-23 20:52N 54°38' E 012°24'411.1
2017-Sep-23 20:30N 54°35' E 012°19'812.1
2017-Sep-23 19:51N 54°28' E 012°13'  
2017-Sep-21 07:54N 58°31' W 002°45'512.8
2017-Sep-21 07:31N 58°35' W 002°52'917.0
2017-Sep-21 07:01N 58°41' W 003°02'816.2
2017-Sep-21 06:31N 58°43' W 003°18'712.6
2017-Sep-21 05:59N 58°43' W 003°30'613.2
2017-Sep-21 05:30N 58°43' W 003°42'713.1
2017-Sep-21 05:00N 58°43' W 003°55'613.0
2017-Sep-21 04:30N 58°43' W 004°07'612.7
2017-Sep-21 04:00N 58°43' W 004°20'612.6
2017-Sep-21 03:30N 58°43' W 004°32'612.1
2017-Sep-21 03:00N 58°43' W 004°44'184 7.3
2017-Sep-20 01:40N 55°56' W 007°05'213.1
2017-Sep-20 01:30N 55°54' W 007°03'713.6
2017-Sep-20 01:00N 55°48' W 006°56'714.0
2017-Sep-20 00:30N 55°42' W 006°50'714.0
2017-Sep-20 00:00N 55°36' W 006°43'612.4
2017-Sep-19 23:30N 55°31' W 006°37'611.5
2017-Sep-19 22:59N 55°28' W 006°28'612.6
2017-Sep-19 22:30N 55°26' W 006°18'611.4
2017-Sep-19 22:00N 55°25' W 006°08'5 9.8
2017-Sep-19 21:30N 55°23' W 006°00'5 9.1
2017-Sep-19 21:00N 55°19' W 005°56'4 8.1
2017-Sep-19 20:30N 55°16' W 005°51'4 8.3
2017-Sep-19 20:00N 55°13' W 005°47'5 9.4
2017-Sep-19 19:30N 55°09' W 005°42'5 9.5
2017-Sep-19 19:00N 55°05' W 005°37'610.0
2017-Sep-19 18:26N 55°01' W 005°31'410.2
2017-Sep-19 18:00N 54°57' W 005°27'510.7
2017-Sep-19 17:30N 54°52' W 005°24'611.3
2017-Sep-19 17:00N 54°46' W 005°21'611.8
2017-Sep-19 16:30N 54°41' W 005°17'612.1
2017-Sep-19 16:00N 54°35' W 005°13'612.0
2017-Sep-19 15:30N 54°30' W 005°09'611.8
2017-Sep-19 15:00N 54°24' W 005°06'612.2
2017-Sep-19 14:30N 54°18' W 005°08'612.3
2017-Sep-19 14:00N 54°12' W 005°10'711.7
2017-Sep-19 13:24N 54°05' W 005°11'9613.4
2017-Sep-19 06:16N 52°31' W 005°45'416.8
2017-Sep-19 06:00N 52°27' W 005°48'714.2
2017-Sep-19 05:30N 52°21' W 005°52'713.1
2017-Sep-19 05:01N 52°14' W 005°55'712.3
2017-Sep-19 04:25N 52°08' W 005°59'511.5
2017-Sep-19 04:00N 52°05' W 006°05'510.9
2017-Sep-19 03:30N 52°02' W 006°13'611.3
2017-Sep-19 03:00N 52°00' W 006°22'510.9
2017-Sep-19 02:30N 51°59' W 006°31'510.7
2017-Sep-19 02:01N 51°58' W 006°39'510.7
2017-Sep-19 01:30N 51°56' W 006°47'610.9
2017-Sep-19 00:59N 51°55' W 006°56'611.0
2017-Sep-19 00:26N 51°54' W 007°06'511.2
2017-Sep-19 00:01N 51°52' W 007°13'611.3
2017-Sep-18 23:31N 51°51' W 007°22'611.3
2017-Sep-18 23:01N 51°50' W 007°31'611.2
2017-Sep-18 22:31N 51°48' W 007°40'611.2
2017-Sep-18 22:01N 51°47' W 007°49'611.3
2017-Sep-18 21:31N 51°45' W 007°57'611.3
2017-Sep-18 21:00N 51°44' W 008°06'510.2
2017-Sep-18 20:31N 51°44' W 008°14'510.4
2017-Sep-18 20:01N 51°49' W 008°16'1 2.6
2017-Sep-18 19:28N 51°50' W 008°16'0 0.0
2017-Sep-18 18:58N 51°50' W 008°16'0 0.0
2017-Sep-18 18:28N 51°50' W 008°16'0 0.0
2017-Sep-18 17:58N 51°50' W 008°16'0 0.0
2017-Sep-18 17:28N 51°50' W 008°16'0 0.0
2017-Sep-18 16:58N 51°50' W 008°16'0 0.0
2017-Sep-18 16:28N 51°50' W 008°16'0 0.0
2017-Sep-18 15:58N 51°50' W 008°16'0 0.0
2017-Sep-18 15:28N 51°50' W 008°16'0 0.0
2017-Sep-18 14:58N 51°50' W 008°16'0 0.0
2017-Sep-18 14:28N 51°50' W 008°16'0 0.0
2017-Sep-18 13:58N 51°50' W 008°16'0 0.0
2017-Sep-18 13:28N 51°50' W 008°16'0 0.0
2017-Sep-18 12:58N 51°50' W 008°16'0 0.0
2017-Sep-18 12:28N 51°50' W 008°16'0 0.0
2017-Sep-18 11:58N 51°50' W 008°16'0 0.0
2017-Sep-18 11:28N 51°50' W 008°16'0 0.0
2017-Sep-18 10:58N 51°50' W 008°16'0 0.0
2017-Sep-18 10:28N 51°50' W 008°16'0 0.0
2017-Sep-18 09:58N 51°50' W 008°16'0 0.0
2017-Sep-18 09:28N 51°50' W 008°16'0 0.0
2017-Sep-18 08:58N 51°50' W 008°16'0 0.0
2017-Sep-18 08:28N 51°50' W 008°16'0 0.0
2017-Sep-18 07:58N 51°50' W 008°16'0 0.0
2017-Sep-18 07:28N 51°50' W 008°16'0 0.0
2017-Sep-18 06:58N 51°50' W 008°16'0 0.0
2017-Sep-18 06:28N 51°50' W 008°16'0 0.0
2017-Sep-18 05:58N 51°50' W 008°16'0 0.0
2017-Sep-18 05:28N 51°50' W 008°16'0 0.0
2017-Sep-18 04:58N 51°50' W 008°16'0 0.0
2017-Sep-18 04:28N 51°50' W 008°16'0 0.0
2017-Sep-18 03:58N 51°50' W 008°16'0 0.0
2017-Sep-18 03:28N 51°50' W 008°16'0 0.0
2017-Sep-18 02:58N 51°50' W 008°16'0 0.0
2017-Sep-18 02:28N 51°50' W 008°16'0 0.0
2017-Sep-18 01:58N 51°50' W 008°16'0 0.0
2017-Sep-18 01:28N 51°50' W 008°16'0 0.0
2017-Sep-18 00:58N 51°50' W 008°16'0 0.0
2017-Sep-18 00:28N 51°50' W 008°16'0 0.0
2017-Sep-17 23:58N 51°50' W 008°16'0 0.0
2017-Sep-17 23:28N 51°50' W 008°16'0 0.0
2017-Sep-17 22:58N 51°50' W 008°16'0 0.0
2017-Sep-17 22:28N 51°50' W 008°16'0 0.0
2017-Sep-17 21:58N 51°50' W 008°16'0 0.0
2017-Sep-17 21:28N 51°50' W 008°16'0 0.0
2017-Sep-17 20:58N 51°50' W 008°16'0 0.0
2017-Sep-17 20:28N 51°50' W 008°16'0 0.0
2017-Sep-17 19:58N 51°50' W 008°16'0 0.0
2017-Sep-17 19:28N 51°50' W 008°16'0 0.0
2017-Sep-17 18:58N 51°50' W 008°16'0 0.0
2017-Sep-17 18:28N 51°50' W 008°16'0 0.0
2017-Sep-17 17:58N 51°50' W 008°16'0 0.0
2017-Sep-17 17:28N 51°50' W 008°16'0 0.0
2017-Sep-17 16:58N 51°50' W 008°16'0 0.0
2017-Sep-17 16:28N 51°50' W 008°16'0 0.0
2017-Sep-17 15:58N 51°50' W 008°16'0 0.0
2017-Sep-17 15:28N 51°50' W 008°16'0 0.0
2017-Sep-17 14:58N 51°50' W 008°16'0 0.0
2017-Sep-17 14:28N 51°50' W 008°16'0 0.5
2017-Sep-17 14:00N 51°50' W 008°16'4 7.6
2017-Sep-17 13:30N 51°46' W 008°15'4 7.6
2017-Sep-17 13:00N 51°42' W 008°16'0 0.8
2017-Sep-17 12:29N 51°42' W 008°16'0 0.0
2017-Sep-17 11:59N 51°42' W 008°16'0 0.0
2017-Sep-17 11:29N 51°42' W 008°16'0 0.0
2017-Sep-17 10:59N 51°42' W 008°16'0 0.0
2017-Sep-17 10:29N 51°42' W 008°16'0 0.1
2017-Sep-17 09:59N 51°42' W 008°16'0 0.1
2017-Sep-17 09:29N 51°42' W 008°16'0 0.0
2017-Sep-17 08:59N 51°42' W 008°16'0 0.0
2017-Sep-17 08:29N 51°42' W 008°16'0 0.0
2017-Sep-17 07:59N 51°42' W 008°16'0 0.0
2017-Sep-17 07:29N 51°42' W 008°16'0 0.0
2017-Sep-17 06:59N 51°42' W 008°16'0 0.0
2017-Sep-17 06:29N 51°42' W 008°16'0 0.0
2017-Sep-17 05:59N 51°42' W 008°16'0 0.0
2017-Sep-17 05:29N 51°42' W 008°16'0 0.0
2017-Sep-17 04:59N 51°42' W 008°16'0 0.0
2017-Sep-17 04:29N 51°42' W 008°16'0 0.0
2017-Sep-17 03:59N 51°42' W 008°16'0 0.0
2017-Sep-17 03:29N 51°42' W 008°16'0 0.0
2017-Sep-17 02:59N 51°42' W 008°16'0 0.1
2017-Sep-17 02:29N 51°42' W 008°16'0 0.1
2017-Sep-17 01:59N 51°42' W 008°16'0 0.0
2017-Sep-17 01:29N 51°42' W 008°16'0 0.2
2017-Sep-17 00:59N 51°42' W 008°16'0 0.0
2017-Sep-17 00:29N 51°42' W 008°16'0 0.0
2017-Sep-16 23:59N 51°42' W 008°16'0 0.1
2017-Sep-16 23:29N 51°42' W 008°16'0 0.1
2017-Sep-16 22:59N 51°42' W 008°16'0 0.0
2017-Sep-16 22:29N 51°42' W 008°16'0 0.1
2017-Sep-16 21:59N 51°42' W 008°16'0 0.1
2017-Sep-16 21:29N 51°42' W 008°16'0 0.1
2017-Sep-16 20:59N 51°42' W 008°16'0 0.0
2017-Sep-16 20:29N 51°42' W 008°16'0 0.0
2017-Sep-16 19:59N 51°42' W 008°16'0 0.0
2017-Sep-16 19:29N 51°42' W 008°16'0 0.1
2017-Sep-16 18:59N 51°42' W 008°16'0 0.1
2017-Sep-16 18:29N 51°42' W 008°16'0 0.0
2017-Sep-16 17:59N 51°42' W 008°16'0 0.0
2017-Sep-16 17:29N 51°42' W 008°16'0 0.0
2017-Sep-16 16:59N 51°42' W 008°16'0 0.1
2017-Sep-16 16:29N 51°42' W 008°16'0 0.0
2017-Sep-16 15:59N 51°42' W 008°16'0 0.0
2017-Sep-16 15:29N 51°42' W 008°16'0 0.1
2017-Sep-16 14:59N 51°42' W 008°16'0 0.1
2017-Sep-16 14:29N 51°42' W 008°16'0 0.0
2017-Sep-16 13:59N 51°42' W 008°16'0 0.0
2017-Sep-16 13:29N 51°42' W 008°16'0 0.0
2017-Sep-16 12:59N 51°42' W 008°16'0 0.0
2017-Sep-16 12:29N 51°42' W 008°16'0 0.0
2017-Sep-16 11:59N 51°42' W 008°16'0 0.1
2017-Sep-16 11:29N 51°42' W 008°16'0 0.4
2017-Sep-16 11:01N 51°42' W 008°16'4 8.2
2017-Sep-16 10:31N 51°43' W 008°09'612.5
2017-Sep-16 10:00N 51°45' W 007°59'612.7
2017-Sep-16 09:31N 51°46' W 007°50'612.9
2017-Sep-16 09:00N 51°48' W 007°40'612.9
2017-Sep-16 08:30N 51°50' W 007°30'713.0
2017-Sep-16 08:00N 51°51' W 007°19'613.1
2017-Sep-16 07:31N 51°53' W 007°09'713.3
2017-Sep-16 07:00N 51°55' W 006°59'714.0
2017-Sep-16 06:30N 51°56' W 006°48'713.4
2017-Sep-16 06:00N 51°58' W 006°37'611.6
2017-Sep-16 05:30N 52°00' W 006°28'611.6
2017-Sep-16 05:00N 52°04' W 006°21'611.1
2017-Sep-16 04:30N 52°07' W 006°14'510.6
2017-Sep-16 04:00N 52°11' W 006°07'510.6
2017-Sep-16 03:30N 52°16' W 006°04'510.9
2017-Sep-16 03:00N 52°21' W 006°00'611.3
2017-Sep-16 02:30N 52°26' W 005°57'611.8
2017-Sep-16 02:00N 52°31' W 005°53'612.2
2017-Sep-16 01:30N 52°37' W 005°49'8613.2
2017-Sep-15 18:59N 54°00' W 005°14'612.6
2017-Sep-15 18:30N 54°06' W 005°12'613.0
2017-Sep-15 18:00N 54°13' W 005°10'713.2
2017-Sep-15 17:30N 54°19' W 005°08'612.9
2017-Sep-15 17:00N 54°26' W 005°07'713.4
2017-Sep-15 16:30N 54°32' W 005°12'713.7
2017-Sep-15 16:01N 54°38' W 005°18'714.4
2017-Sep-15 15:30N 54°44' W 005°23'714.0
2017-Sep-15 15:00N 54°50' W 005°29'713.6
2017-Sep-15 14:30N 54°56' W 005°34'2612.9
2017-Sep-15 12:31N 55°17' W 006°01'111.5
2017-Sep-15 12:28N 55°17' W 006°02'511.4
2017-Sep-15 12:00N 55°21' W 006°08'611.9
2017-Sep-15 11:30N 55°23' W 006°18'611.1
2017-Sep-15 11:00N 55°25' W 006°27'510.6
2017-Sep-15 10:30N 55°26' W 006°36'610.7
2017-Sep-15 09:59N 55°28' W 006°46'610.4
2017-Sep-15 09:22N 55°30' W 006°56'510.6
2017-Sep-15 08:53N 55°32' W 007°05'610.7
2017-Sep-15 08:20N 55°36' W 007°11'712.1
2017-Sep-15 07:45N 55°43' W 007°16'412.2
2017-Sep-15 07:27N 55°46' W 007°19'913.4
2017-Sep-15 06:47N 55°54' W 007°26'  

Dump ship's entire track history